createdAt,value
2022-09-28T00:01:17.215Z,7.70
2022-09-28T00:03:45.484Z,7.70
2022-09-28T00:06:14.491Z,7.70
2022-09-28T00:08:41.888Z,7.80
2022-09-28T00:11:13.838Z,7.90
2022-09-28T00:13:42.999Z,7.90
2022-09-28T00:16:17.348Z,7.90
2022-09-28T00:18:45.697Z,7.90
2022-09-28T00:21:14.283Z,7.90
2022-09-28T00:24:00.952Z,7.80
2022-09-28T00:26:30.523Z,7.80
2022-09-28T00:29:00.389Z,7.70
2022-09-28T00:31:37.082Z,7.60
2022-09-28T00:34:05.942Z,7.60
2022-09-28T00:36:33.880Z,7.50
2022-09-28T00:39:06.781Z,7.40
2022-09-28T00:41:34.772Z,7.30
2022-09-28T00:44:27.000Z,7.30
2022-09-28T00:47:09.106Z,7.20
2022-09-28T00:49:36.233Z,7.20
2022-09-28T00:52:06.640Z,7.20
2022-09-28T00:54:35.009Z,7.20
2022-09-28T00:57:03.864Z,7.20
2022-09-28T00:59:33.055Z,7.30
2022-09-28T01:02:01.917Z,7.30
2022-09-28T01:04:31.142Z,7.20
2022-09-28T01:07:00.366Z,7.20
2022-09-28T01:09:29.144Z,7.20
2022-09-28T01:11:56.349Z,7.20
2022-09-28T01:14:26.424Z,7.10
2022-09-28T01:17:00.521Z,7.10
2022-09-28T01:20:11.067Z,7.10
2022-09-28T01:23:06.617Z,7.00
2022-09-28T01:26:09.678Z,7.00
2022-09-28T01:28:36.957Z,7.00
2022-09-28T01:31:11.439Z,7.00
2022-09-28T01:34:05.330Z,6.90
2022-09-28T01:36:38.889Z,6.90
2022-09-28T01:39:12.701Z,6.80
2022-09-28T01:41:42.292Z,6.80
2022-09-28T01:44:15.037Z,6.80
2022-09-28T01:46:45.544Z,6.70
2022-09-28T01:49:18.498Z,6.70
2022-09-28T01:52:08.529Z,6.80
2022-09-28T01:54:59.012Z,6.70
2022-09-28T01:57:32.498Z,6.70
2022-09-28T02:00:13.195Z,6.60
2022-09-28T02:02:49.827Z,6.60
2022-09-28T02:05:33.369Z,6.60
2022-09-28T02:08:15.252Z,6.50
2022-09-28T02:11:13.877Z,6.50
2022-09-28T02:14:03.483Z,6.40
2022-09-28T02:16:45.277Z,6.40
2022-09-28T02:19:15.096Z,6.40
2022-09-28T02:21:48.980Z,6.40
2022-09-28T02:24:38.766Z,6.40
2022-09-28T02:27:31.759Z,6.30
2022-09-28T02:29:58.955Z,6.30
2022-09-28T02:32:28.217Z,6.30
2022-09-28T02:34:56.107Z,6.30
2022-09-28T02:37:23.236Z,6.30
2022-09-28T02:39:50.542Z,6.30
2022-09-28T02:42:27.053Z,6.30
2022-09-28T02:44:54.057Z,6.30
2022-09-28T02:47:56.662Z,6.30
2022-09-28T02:50:38.842Z,6.30
2022-09-28T02:53:12.165Z,6.30
2022-09-28T02:55:39.254Z,6.30
2022-09-28T02:58:33.915Z,6.30
2022-09-28T03:01:32.005Z,6.30
2022-09-28T03:04:21.677Z,6.30
2022-09-28T03:07:24.499Z,6.30
2022-09-28T03:10:17.017Z,6.30
2022-09-28T03:12:48.132Z,6.30
2022-09-28T03:15:36.391Z,6.30
2022-09-28T03:18:04.287Z,6.30
2022-09-28T03:20:33.517Z,6.30
2022-09-28T03:25:48.931Z,6.50
2022-09-28T03:28:16.011Z,6.60
2022-09-28T03:30:43.537Z,6.70
2022-09-28T03:33:10.984Z,6.80
2022-09-28T03:35:38.837Z,6.90
2022-09-28T03:38:06.011Z,6.90
2022-09-28T03:40:37.536Z,7.00
2022-09-28T03:43:04.813Z,7.00
2022-09-28T03:45:32.078Z,7.10
2022-09-28T03:47:59.955Z,7.10
2022-09-28T03:50:27.425Z,7.20
2022-09-28T03:52:54.572Z,7.20
2022-09-28T03:55:21.594Z,7.20
2022-09-28T03:57:55.871Z,7.30
2022-09-28T04:00:23.240Z,7.30
2022-09-28T04:02:50.414Z,7.30
2022-09-28T04:05:17.501Z,7.30
2022-09-28T04:07:44.637Z,7.30
2022-09-28T04:10:11.811Z,7.30
2022-09-28T04:12:38.988Z,7.40
2022-09-28T04:15:06.789Z,7.40
2022-09-28T04:17:39.216Z,7.30
2022-09-28T04:20:11.260Z,7.30
2022-09-28T04:22:48.393Z,7.30
2022-09-28T04:25:15.732Z,7.40
2022-09-28T04:28:01.558Z,7.30
2022-09-28T04:30:30.015Z,7.40
2022-09-28T04:32:57.135Z,7.50
2022-09-28T04:35:24.408Z,7.50
2022-09-28T04:37:51.995Z,7.50
2022-09-28T04:40:19.141Z,7.60
2022-09-28T04:42:54.064Z,7.60
2022-09-28T04:45:21.715Z,7.60
2022-09-28T04:47:49.714Z,7.60
2022-09-28T04:50:37.028Z,7.60
2022-09-28T04:53:15.359Z,7.60
2022-09-28T04:55:45.378Z,7.70
2022-09-28T04:58:12.529Z,7.80
2022-09-28T05:00:40.515Z,7.80
2022-09-28T05:03:19.393Z,7.80
2022-09-28T05:06:04.493Z,7.80
2022-09-28T05:08:42.236Z,7.80
2022-09-28T05:11:12.862Z,7.80
2022-09-28T05:13:42.412Z,7.90
2022-09-28T05:16:10.280Z,7.90
2022-09-28T05:18:56.804Z,7.90
2022-09-28T05:21:25.541Z,7.90
2022-09-28T05:23:56.153Z,7.90
2022-09-28T05:26:24.626Z,7.90
2022-09-28T05:28:51.820Z,7.90
2022-09-28T05:31:53.491Z,7.90
2022-09-28T05:34:32.962Z,7.90
2022-09-28T05:37:00.116Z,7.90
2022-09-28T05:39:27.204Z,8.00
2022-09-28T05:41:55.982Z,8.00
2022-09-28T05:44:24.844Z,8.00
2022-09-28T05:46:54.816Z,8.00
2022-09-28T05:49:23.161Z,8.00
2022-09-28T05:51:50.175Z,8.10
2022-09-28T05:54:17.483Z,8.00
2022-09-28T05:56:47.066Z,8.00
2022-09-28T05:59:14.406Z,8.10
2022-09-28T06:01:41.986Z,8.10
2022-09-28T06:04:10.862Z,8.10
2022-09-28T06:06:38.927Z,8.10
2022-09-28T06:09:06.114Z,8.10
2022-09-28T06:11:42.052Z,8.10
2022-09-28T06:14:23.763Z,8.00
2022-09-28T06:16:50.962Z,8.10
2022-09-28T06:19:18.608Z,8.00
2022-09-28T06:22:09.148Z,8.00
2022-09-28T06:24:45.388Z,8.00
2022-09-28T06:27:12.596Z,8.00
2022-09-28T06:29:39.643Z,8.00
2022-09-28T06:32:07.744Z,8.00
2022-09-28T06:34:36.875Z,8.00
2022-09-28T06:37:04.884Z,8.00
2022-09-28T06:39:32.660Z,8.00
2022-09-28T06:42:04.740Z,8.00
2022-09-28T06:44:52.539Z,8.10
2022-09-28T06:47:42.937Z,8.00
2022-09-28T06:50:34.833Z,8.10
2022-09-28T06:53:29.008Z,8.10
2022-09-28T06:56:10.572Z,8.10
2022-09-28T06:58:38.199Z,8.20
2022-09-28T07:01:06.561Z,8.20
2022-09-28T07:03:43.800Z,8.10
2022-09-28T07:06:12.544Z,8.10
2022-09-28T07:09:22.321Z,8.20
2022-09-28T07:12:13.585Z,8.20
2022-09-28T07:14:59.591Z,8.20
2022-09-28T07:17:28.862Z,8.30
2022-09-28T07:20:05.715Z,8.30
2022-09-28T07:22:43.456Z,8.40
2022-09-28T07:25:16.229Z,8.40
2022-09-28T07:28:03.972Z,8.50
2022-09-28T07:31:03.773Z,8.50
2022-09-28T07:33:59.728Z,8.60
2022-09-28T07:36:35.365Z,8.60
2022-09-28T07:39:04.266Z,8.70
2022-09-28T07:41:34.156Z,8.80
2022-09-28T07:44:07.192Z,8.80
2022-09-28T07:46:37.201Z,8.90
2022-09-28T07:49:12.281Z,9.00
2022-09-28T07:51:58.355Z,9.10
2022-09-28T07:54:25.506Z,9.10
2022-09-28T07:57:12.839Z,9.10
2022-09-28T08:00:05.151Z,9.20
2022-09-28T08:02:50.203Z,9.30
2022-09-28T08:05:22.497Z,9.30
2022-09-28T08:07:49.567Z,9.40
2022-09-28T08:10:17.634Z,9.40
2022-09-28T08:12:47.295Z,9.50
2022-09-28T08:15:14.561Z,9.60
2022-09-28T08:17:53.838Z,9.60
2022-09-28T08:20:41.172Z,9.60
2022-09-28T08:23:09.881Z,9.60
2022-09-28T08:25:38.510Z,9.70
2022-09-28T08:28:07.410Z,9.70
2022-09-28T08:30:40.614Z,9.70
2022-09-28T08:33:36.761Z,9.80
2022-09-28T08:36:30.050Z,9.80
2022-09-28T08:39:34.576Z,9.90
2022-09-28T08:42:31.915Z,9.90
2022-09-28T08:45:30.564Z,10.00
2022-09-28T08:48:38.030Z,10.00
2022-09-28T08:51:50.756Z,10.20
2022-09-28T08:54:49.581Z,10.20
2022-09-28T08:58:01.128Z,10.40
2022-09-28T09:00:49.159Z,10.60
2022-09-28T09:03:31.476Z,10.70
2022-09-28T09:06:57.777Z,10.80
2022-09-28T09:09:59.450Z,11.10
2022-09-28T09:12:33.858Z,11.30
2022-09-28T09:15:06.786Z,11.30
2022-09-28T09:18:08.028Z,11.30
2022-09-28T09:21:16.563Z,11.30
2022-09-28T09:23:44.646Z,11.30
2022-09-28T09:26:24.610Z,11.20
2022-09-28T09:29:31.299Z,11.20
2022-09-28T09:32:17.528Z,11.20
2022-09-28T09:34:44.723Z,11.20
2022-09-28T09:38:16.896Z,11.20
2022-09-28T09:41:04.254Z,11.30
2022-09-28T09:44:08.668Z,11.30
2022-09-28T09:47:08.168Z,11.40
2022-09-28T09:50:05.356Z,11.50
2022-09-28T09:52:55.903Z,11.60
2022-09-28T09:55:59.900Z,11.80
2022-09-28T09:59:05.386Z,11.90
2022-09-28T10:01:44.181Z,11.90
2022-09-28T10:04:42.119Z,12.00
2022-09-28T10:07:49.418Z,12.00
2022-09-28T10:10:59.093Z,12.10
2022-09-28T10:13:33.081Z,12.20
2022-09-28T10:16:06.762Z,12.20
2022-09-28T10:18:39.193Z,12.20
2022-09-28T10:21:47.690Z,12.30
2022-09-28T10:24:45.388Z,12.30
2022-09-28T10:27:20.079Z,12.30
2022-09-28T10:30:09.784Z,12.20
2022-09-28T10:32:44.589Z,12.10
2022-09-28T10:35:15.030Z,12.00
2022-09-28T10:38:18.977Z,12.00
2022-09-28T10:41:11.928Z,11.90
2022-09-28T10:44:08.903Z,11.90
2022-09-28T10:46:58.486Z,11.90
2022-09-28T10:49:28.709Z,12.00
2022-09-28T10:51:58.764Z,12.10
2022-09-28T10:54:31.631Z,12.10
2022-09-28T10:57:00.987Z,12.10
2022-09-28T10:59:47.210Z,12.10
2022-09-28T11:02:35.679Z,12.10
2022-09-28T11:05:29.067Z,12.10
2022-09-28T11:08:07.184Z,12.10
2022-09-28T11:10:42.939Z,12.00
2022-09-28T11:13:14.483Z,12.00
2022-09-28T11:15:46.943Z,12.00
2022-09-28T11:18:31.569Z,12.00
2022-09-28T11:21:15.274Z,11.90
2022-09-28T11:24:19.344Z,11.80
2022-09-28T11:26:54.458Z,11.70
2022-09-28T11:29:39.093Z,11.60
2022-09-28T11:32:42.008Z,11.60
2022-09-28T11:35:50.606Z,11.50
2022-09-28T11:38:36.550Z,11.60
2022-09-28T11:41:41.293Z,11.50
2022-09-28T11:44:23.411Z,11.50
2022-09-28T11:47:17.430Z,11.60
2022-09-28T11:50:11.051Z,11.60
2022-09-28T11:52:46.150Z,11.60
2022-09-28T11:55:51.765Z,11.60
2022-09-28T11:58:27.844Z,11.50
2022-09-28T12:01:07.648Z,11.50
2022-09-28T12:04:01.636Z,11.50
2022-09-28T12:06:41.286Z,11.50
2022-09-28T12:09:25.054Z,11.50
2022-09-28T12:12:38.948Z,11.50
2022-09-28T12:16:07.743Z,11.50
2022-09-28T12:18:51.346Z,11.50
2022-09-28T12:21:24.418Z,11.50
2022-09-28T12:24:00.852Z,11.40
2022-09-28T12:26:44.488Z,11.40
2022-09-28T12:29:16.252Z,11.40
2022-09-28T12:31:57.015Z,11.40
2022-09-28T12:34:24.662Z,11.40
2022-09-28T12:37:19.689Z,11.40
2022-09-28T12:40:06.408Z,11.40
2022-09-28T12:42:58.748Z,11.50
2022-09-28T12:46:11.057Z,11.50
2022-09-28T12:52:23.245Z,11.70
2022-09-28T12:55:36.209Z,11.80
2022-09-28T12:58:24.562Z,11.80
2022-09-28T13:01:32.728Z,11.80
2022-09-28T13:04:30.728Z,11.80
2022-09-28T13:07:09.825Z,11.80
2022-09-28T13:10:11.207Z,11.80
2022-09-28T13:12:54.380Z,11.90
2022-09-28T13:15:24.940Z,11.90
2022-09-28T13:18:17.211Z,12.00
2022-09-28T13:21:06.487Z,12.00
2022-09-28T13:23:42.434Z,12.10
2022-09-28T13:26:14.539Z,12.20
2022-09-28T13:28:43.675Z,12.20
2022-09-28T13:31:11.865Z,12.20
2022-09-28T13:33:41.276Z,12.30
2022-09-28T13:36:30.505Z,12.40
2022-09-28T13:39:01.556Z,12.40
2022-09-28T13:41:33.385Z,12.50
2022-09-28T13:44:21.046Z,12.50
2022-09-28T13:47:10.223Z,12.50
2022-09-28T13:49:55.609Z,12.60
2022-09-28T13:52:47.577Z,12.60
2022-09-28T13:55:33.431Z,12.50
2022-09-28T13:58:05.587Z,12.50
2022-09-28T14:00:45.549Z,12.50
2022-09-28T14:03:27.169Z,12.50
2022-09-28T14:06:11.116Z,12.50
2022-09-28T14:08:58.469Z,12.50
2022-09-28T14:11:42.621Z,12.50
2022-09-28T14:14:11.943Z,12.50
2022-09-28T14:16:40.476Z,12.50
2022-09-28T14:19:10.551Z,12.50
2022-09-28T14:21:49.697Z,12.50
2022-09-28T14:24:45.145Z,12.40
2022-09-28T14:27:20.420Z,12.40
2022-09-28T14:29:49.562Z,12.40
2022-09-28T14:32:19.979Z,12.40
2022-09-28T14:35:08.395Z,12.40
2022-09-28T14:37:58.310Z,12.50
2022-09-28T14:41:04.226Z,12.50
2022-09-28T14:43:46.351Z,12.40
2022-09-28T14:46:19.336Z,12.40
2022-09-28T14:49:03.505Z,12.40
2022-09-28T14:51:30.526Z,12.30
2022-09-28T14:54:19.201Z,12.30
2022-09-28T14:56:53.419Z,12.30
2022-09-28T14:59:36.323Z,12.30
2022-09-28T15:02:13.512Z,12.30
2022-09-28T15:05:02.344Z,12.20
2022-09-28T15:07:42.429Z,12.20
2022-09-28T15:10:32.065Z,12.10
2022-09-28T15:13:01.943Z,12.10
2022-09-28T15:15:40.886Z,12.10
2022-09-28T15:18:17.312Z,12.00
2022-09-28T15:20:51.302Z,12.00
2022-09-28T15:23:30.436Z,12.00
2022-09-28T15:25:57.638Z,12.00
2022-09-28T15:28:26.077Z,12.00
2022-09-28T15:31:00.635Z,11.90
2022-09-28T15:33:53.759Z,12.00
2022-09-28T15:36:25.541Z,11.90
2022-09-28T15:39:10.762Z,11.90
2022-09-28T15:41:38.009Z,11.90
2022-09-28T15:44:10.819Z,11.90
2022-09-28T15:46:44.267Z,11.90
2022-09-28T15:49:28.130Z,11.90
2022-09-28T15:51:56.232Z,11.90
2022-09-28T15:54:25.291Z,11.90
2022-09-28T15:57:02.703Z,11.90
2022-09-28T15:59:39.799Z,11.90
2022-09-28T16:02:17.454Z,11.90
2022-09-28T16:04:50.659Z,11.90
2022-09-28T16:07:28.682Z,11.90
2022-09-28T16:09:55.968Z,11.90
2022-09-28T16:12:25.842Z,11.90
2022-09-28T16:14:56.039Z,11.90
2022-09-28T16:17:33.461Z,11.90
2022-09-28T16:20:17.951Z,11.80
2022-09-28T16:22:45.394Z,11.80
2022-09-28T16:25:24.793Z,11.90
2022-09-28T16:27:55.908Z,11.80
2022-09-28T16:30:29.809Z,11.80
2022-09-28T16:32:59.436Z,11.80
2022-09-28T16:35:42.523Z,11.80
2022-09-28T16:38:17.838Z,11.80
2022-09-28T16:40:54.925Z,11.80
2022-09-28T16:43:26.968Z,11.80
2022-09-28T16:46:16.038Z,11.80
2022-09-28T16:48:51.993Z,11.80
2022-09-28T16:51:21.640Z,11.80
2022-09-28T16:54:07.680Z,11.70
2022-09-28T16:56:37.227Z,11.70
2022-09-28T16:59:04.763Z,11.70
2022-09-28T17:01:31.990Z,11.70
2022-09-28T17:03:59.052Z,11.70
2022-09-28T17:06:27.082Z,11.70
2022-09-28T17:08:58.505Z,11.70
2022-09-28T17:11:25.795Z,11.70
2022-09-28T17:13:59.149Z,11.60
2022-09-28T17:19:24.701Z,11.70
2022-09-28T17:21:53.166Z,11.70
2022-09-28T17:24:20.943Z,11.70
2022-09-28T17:26:51.206Z,11.60
2022-09-28T17:29:19.256Z,11.60
2022-09-28T17:31:47.862Z,11.60
2022-09-28T17:34:16.378Z,11.60
2022-09-28T17:36:44.854Z,11.60
2022-09-28T17:39:14.473Z,11.50
2022-09-28T17:41:41.885Z,11.50
2022-09-28T17:44:09.326Z,11.50
2022-09-28T17:46:46.019Z,11.50
2022-09-28T17:49:13.971Z,11.50
2022-09-28T17:51:41.190Z,11.50
2022-09-28T17:54:08.770Z,11.50
2022-09-28T17:56:36.753Z,11.50
2022-09-28T17:59:10.874Z,11.50
2022-09-28T18:01:39.830Z,11.50
2022-09-28T18:04:08.932Z,11.50
2022-09-28T18:06:37.465Z,11.50
2022-09-28T18:09:05.309Z,11.50
2022-09-28T18:11:33.537Z,11.40
2022-09-28T18:14:00.969Z,11.40
2022-09-28T18:16:29.031Z,11.50
2022-09-28T18:18:56.289Z,11.40
2022-09-28T18:21:23.557Z,11.50
2022-09-28T18:23:50.584Z,11.40
2022-09-28T18:26:19.697Z,11.40
2022-09-28T18:28:47.235Z,11.40
2022-09-28T18:31:15.701Z,11.50
2022-09-28T18:33:43.463Z,11.50
2022-09-28T18:36:10.840Z,11.40
2022-09-28T18:38:38.462Z,11.40
2022-09-28T18:41:15.767Z,11.40
2022-09-28T18:43:55.630Z,11.40
2022-09-28T18:46:25.327Z,11.50
2022-09-28T18:48:52.423Z,11.50
2022-09-28T18:51:22.226Z,11.50
2022-09-28T18:53:49.286Z,11.50
2022-09-28T18:56:21.149Z,11.50
2022-09-28T18:58:51.762Z,11.50
2022-09-28T19:01:36.261Z,11.50
2022-09-28T19:04:06.600Z,11.50
2022-09-28T19:06:34.941Z,11.40
2022-09-28T19:09:02.050Z,11.40
2022-09-28T19:11:29.350Z,11.40
2022-09-28T19:13:56.492Z,11.40
2022-09-28T19:16:26.248Z,11.40
2022-09-28T19:18:53.796Z,11.50
2022-09-28T19:21:21.772Z,11.40
2022-09-28T19:23:49.937Z,11.40
2022-09-28T19:26:26.975Z,11.40
2022-09-28T19:28:57.948Z,11.40
2022-09-28T19:31:26.301Z,11.40
2022-09-28T19:33:53.321Z,11.40
2022-09-28T19:36:23.739Z,11.40
2022-09-28T19:38:52.566Z,11.40
2022-09-28T19:41:43.045Z,11.40
2022-09-28T19:44:26.887Z,11.40
2022-09-28T19:47:09.962Z,11.40
2022-09-28T19:49:39.234Z,11.40
2022-09-28T19:52:17.306Z,11.40
2022-09-28T19:54:54.492Z,11.40
2022-09-28T19:57:22.688Z,11.40
2022-09-28T19:59:52.631Z,11.50
2022-09-28T20:02:21.244Z,11.40
2022-09-28T20:04:48.782Z,11.50
2022-09-28T20:07:15.826Z,11.40
2022-09-28T20:09:42.877Z,11.50
2022-09-28T20:12:09.933Z,11.40
2022-09-28T20:14:40.129Z,11.40
2022-09-28T20:17:08.075Z,11.50
2022-09-28T20:19:35.376Z,11.50
2022-09-28T20:22:02.999Z,11.50
2022-09-28T20:24:31.461Z,11.50
2022-09-28T20:26:58.954Z,11.50
2022-09-28T20:29:26.815Z,11.50
2022-09-28T20:31:53.953Z,11.50
2022-09-28T20:34:21.379Z,11.50
2022-09-28T20:36:48.486Z,11.50
2022-09-28T20:39:15.658Z,11.50
2022-09-28T20:41:43.126Z,11.50
2022-09-28T20:44:10.260Z,11.50
2022-09-28T20:46:38.231Z,11.50
2022-09-28T20:49:05.845Z,11.50
2022-09-28T20:51:33.228Z,11.50
2022-09-28T20:54:00.445Z,11.50
2022-09-28T20:56:30.721Z,11.50
2022-09-28T20:58:58.074Z,11.50
2022-09-28T21:01:27.613Z,11.50
2022-09-28T21:03:55.807Z,11.50
2022-09-28T21:06:25.470Z,11.50
2022-09-28T21:08:52.828Z,11.50
2022-09-28T21:11:22.625Z,11.50
2022-09-28T21:13:53.881Z,11.50
2022-09-28T21:16:21.579Z,11.50
2022-09-28T21:18:48.673Z,11.50
2022-09-28T21:21:18.263Z,11.50
2022-09-28T21:23:46.077Z,11.50
2022-09-28T21:26:16.131Z,11.60
2022-09-28T21:28:44.858Z,11.50
2022-09-28T21:31:12.940Z,11.50
2022-09-28T21:33:40.083Z,11.50
2022-09-28T21:36:08.053Z,11.50
2022-09-28T21:38:35.876Z,11.60
2022-09-28T21:41:03.280Z,11.60
2022-09-28T21:43:31.819Z,11.60
2022-09-28T21:45:59.002Z,11.50
2022-09-28T21:48:29.032Z,11.60
2022-09-28T21:51:01.687Z,11.50
2022-09-28T21:53:31.506Z,11.50
2022-09-28T21:56:00.234Z,11.50
2022-09-28T21:58:29.459Z,11.50
2022-09-28T22:01:08.854Z,11.50
2022-09-28T22:03:36.684Z,11.50
2022-09-28T22:06:04.814Z,11.50
2022-09-28T22:08:32.656Z,11.60
2022-09-28T22:11:03.303Z,11.50
2022-09-28T22:13:32.499Z,11.50
2022-09-28T22:16:00.337Z,11.60
2022-09-28T22:18:31.078Z,11.60
2022-09-28T22:21:25.839Z,11.50
2022-09-28T22:23:53.566Z,11.50
2022-09-28T22:26:25.691Z,11.50
2022-09-28T22:28:56.352Z,11.50
2022-09-28T22:31:29.727Z,11.50
2022-09-28T22:33:57.519Z,11.50
2022-09-28T22:36:25.645Z,11.50
2022-09-28T22:38:54.627Z,11.50
2022-09-28T22:41:22.253Z,11.50
2022-09-28T22:43:51.184Z,11.60
2022-09-28T22:46:25.184Z,11.60
2022-09-28T22:48:54.830Z,11.60
2022-09-28T22:51:22.775Z,11.60
2022-09-28T22:53:50.276Z,11.60
2022-09-28T22:56:18.950Z,11.60
2022-09-28T22:58:46.925Z,11.60
2022-09-28T23:01:28.634Z,11.60
2022-09-28T23:03:56.851Z,11.60
2022-09-28T23:06:26.828Z,11.50
2022-09-28T23:08:53.904Z,11.50
2022-09-28T23:11:21.778Z,11.50
2022-09-28T23:13:54.909Z,11.50
2022-09-28T23:16:23.662Z,11.50
2022-09-28T23:18:51.009Z,11.50
2022-09-28T23:21:20.300Z,11.40
2022-09-28T23:23:55.525Z,11.40
2022-09-28T23:26:24.250Z,11.40
2022-09-28T23:28:51.753Z,11.40
2022-09-28T23:31:22.312Z,11.40
2022-09-28T23:33:50.452Z,11.40
2022-09-28T23:36:18.331Z,11.40
2022-09-28T23:38:45.501Z,11.50
2022-09-28T23:41:12.660Z,11.40
2022-09-28T23:43:39.708Z,11.40
2022-09-28T23:46:07.180Z,11.40
2022-09-28T23:48:34.748Z,11.40
2022-09-28T23:51:02.486Z,11.40
2022-09-28T23:53:30.248Z,11.40
2022-09-28T23:55:57.592Z,11.40
2022-09-28T23:58:25.814Z,11.40
